createdAt,value
2019-05-10T00:00:38.526Z,11.80
2019-05-10T00:03:24.928Z,11.80
2019-05-10T00:06:11.426Z,11.80
2019-05-10T00:08:49.138Z,11.70
2019-05-10T00:11:39.220Z,11.70
2019-05-10T00:14:14.487Z,11.70
2019-05-10T00:16:43.616Z,11.60
2019-05-10T00:19:12.159Z,11.60
2019-05-10T00:21:40.995Z,11.70
2019-05-10T00:24:09.646Z,11.60
2019-05-10T00:26:38.148Z,11.60
2019-05-10T00:29:06.827Z,11.60
2019-05-10T00:31:36.484Z,11.60
2019-05-10T00:34:05.215Z,11.60
2019-05-10T00:36:33.670Z,11.60
2019-05-10T00:39:02.319Z,11.60
2019-05-10T00:41:31.057Z,11.60
2019-05-10T00:43:59.591Z,11.60
2019-05-10T00:46:28.092Z,11.60
2019-05-10T00:48:56.585Z,11.60
2019-05-10T00:51:25.286Z,11.60
2019-05-10T00:53:54.106Z,11.60
2019-05-10T00:56:22.649Z,11.60
2019-05-10T00:58:51.121Z,11.60
2019-05-10T01:01:19.821Z,11.60
2019-05-10T01:03:48.284Z,11.60
2019-05-10T01:06:16.951Z,11.60
2019-05-10T01:08:45.676Z,11.60
2019-05-10T01:11:14.360Z,11.60
2019-05-10T01:13:42.826Z,11.50
2019-05-10T01:16:11.613Z,11.50
2019-05-10T01:18:40.083Z,11.50
2019-05-10T01:21:08.683Z,11.50
2019-05-10T01:23:37.394Z,11.50
2019-05-10T01:26:05.951Z,11.50
2019-05-10T01:28:34.482Z,11.50
2019-05-10T01:31:03.421Z,11.50
2019-05-10T01:33:31.963Z,11.50
2019-05-10T01:36:00.428Z,11.50
2019-05-10T01:38:29.260Z,11.50
2019-05-10T01:40:57.746Z,11.50
2019-05-10T01:43:26.276Z,11.50
2019-05-10T01:45:54.901Z,11.60
2019-05-10T01:48:23.378Z,11.60
2019-05-10T01:50:52.161Z,11.60
2019-05-10T01:53:20.844Z,11.50
2019-05-10T01:55:52.522Z,11.50
2019-05-10T01:58:19.588Z,11.50
2019-05-10T02:00:48.418Z,11.50
2019-05-10T02:03:16.967Z,11.50
2019-05-10T02:05:45.489Z,11.50
2019-05-10T02:08:14.181Z,11.50
2019-05-10T02:10:45.653Z,11.50
2019-05-10T02:13:14.126Z,11.40
2019-05-10T02:15:42.988Z,11.40
2019-05-10T02:18:11.527Z,11.40
2019-05-10T02:20:40.051Z,11.40
2019-05-10T02:23:08.681Z,11.40
2019-05-10T02:25:37.153Z,11.40
2019-05-10T02:28:05.642Z,11.40
2019-05-10T02:30:34.533Z,11.40
2019-05-10T02:33:03.074Z,11.30
2019-05-10T02:35:31.619Z,11.30
2019-05-10T02:38:00.411Z,11.30
2019-05-10T02:40:29.091Z,11.30
2019-05-10T02:42:57.638Z,11.30
2019-05-10T02:45:26.860Z,11.20
2019-05-10T02:47:55.319Z,11.20
2019-05-10T02:50:24.014Z,11.20
2019-05-10T02:52:52.675Z,11.20
2019-05-10T02:55:22.790Z,11.20
2019-05-10T02:57:52.076Z,11.20
2019-05-10T03:00:21.183Z,11.20
2019-05-10T03:02:50.870Z,11.20
2019-05-10T03:05:19.402Z,11.20
2019-05-10T03:07:48.785Z,11.20
2019-05-10T03:10:17.767Z,11.20
2019-05-10T03:12:50.844Z,11.10
2019-05-10T03:15:19.922Z,11.10
2019-05-10T03:17:50.363Z,11.00
2019-05-10T03:20:20.005Z,11.00
2019-05-10T03:22:49.096Z,11.00
2019-05-10T03:25:17.732Z,11.00
2019-05-10T03:27:46.368Z,11.00
2019-05-10T03:30:15.704Z,11.00
2019-05-10T03:32:44.206Z,11.00
2019-05-10T03:35:12.914Z,11.10
2019-05-10T03:37:41.831Z,11.10
2019-05-10T03:40:11.160Z,11.00
2019-05-10T03:42:41.276Z,11.10
2019-05-10T03:45:10.729Z,11.10
2019-05-10T03:47:39.287Z,11.10
2019-05-10T03:50:09.032Z,11.10
2019-05-10T03:52:37.745Z,11.10
2019-05-10T03:55:07.254Z,11.10
2019-05-10T03:57:35.886Z,11.10
2019-05-10T04:00:12.379Z,11.10
2019-05-10T04:02:40.934Z,11.10
2019-05-10T04:05:09.860Z,11.10
2019-05-10T04:07:38.418Z,11.00
2019-05-10T04:10:07.497Z,11.10
2019-05-10T04:12:36.046Z,11.10
2019-05-10T04:15:07.345Z,11.00
2019-05-10T04:17:35.891Z,11.00
2019-05-10T04:20:09.288Z,11.10
2019-05-10T04:22:37.871Z,11.00
2019-05-10T04:25:07.088Z,11.10
2019-05-10T04:27:35.646Z,11.10
2019-05-10T04:30:06.620Z,11.10
2019-05-10T04:32:35.082Z,11.10
2019-05-10T04:35:04.704Z,11.10
2019-05-10T04:37:33.468Z,11.10
2019-05-10T04:40:02.320Z,11.20
2019-05-10T04:42:30.888Z,11.20
2019-05-10T04:44:59.601Z,11.20
2019-05-10T04:47:28.144Z,11.20
2019-05-10T04:49:56.681Z,11.20
2019-05-10T04:52:25.456Z,11.20
2019-05-10T04:54:54.003Z,11.20
2019-05-10T04:57:22.546Z,11.20
2019-05-10T04:59:51.401Z,11.20
2019-05-10T05:02:22.313Z,11.20
2019-05-10T05:04:50.089Z,11.20
2019-05-10T05:07:18.884Z,11.20
2019-05-10T05:09:47.671Z,11.20
2019-05-10T05:12:16.202Z,11.20
2019-05-10T05:14:45.037Z,11.20
2019-05-10T05:17:13.614Z,11.20
2019-05-10T05:19:42.108Z,11.20
2019-05-10T05:22:10.865Z,11.30
2019-05-10T05:24:39.417Z,11.30
2019-05-10T05:27:08.047Z,11.30
2019-05-10T05:29:36.723Z,11.40
2019-05-10T05:32:05.413Z,11.40
2019-05-10T05:34:33.981Z,11.40
2019-05-10T05:37:02.691Z,11.40
2019-05-10T05:39:31.475Z,11.40
2019-05-10T05:42:00.041Z,11.50
2019-05-10T05:44:28.927Z,11.50
2019-05-10T05:46:57.509Z,11.60
2019-05-10T05:49:26.181Z,11.60
2019-05-10T05:51:56.304Z,11.70
2019-05-10T05:54:24.807Z,11.70
2019-05-10T05:56:53.364Z,11.70
2019-05-10T05:59:23.753Z,11.80
2019-05-10T06:01:52.474Z,11.80
2019-05-10T06:04:21.029Z,11.80
2019-05-10T06:06:53.751Z,11.80
2019-05-10T06:09:20.174Z,11.80
2019-05-10T06:11:48.723Z,11.80
2019-05-10T06:14:17.343Z,11.80
2019-05-10T06:16:51.248Z,11.80
2019-05-10T06:19:19.886Z,11.90
2019-05-10T06:21:46.640Z,11.90
2019-05-10T06:24:15.836Z,12.00
2019-05-10T06:26:44.640Z,12.00
2019-05-10T06:29:17.319Z,12.10
2019-05-10T06:31:43.625Z,12.10
2019-05-10T06:34:12.160Z,12.20
2019-05-10T06:36:40.656Z,12.20
2019-05-10T06:39:09.383Z,12.20
2019-05-10T06:41:37.945Z,12.20
2019-05-10T06:44:07.033Z,12.30
2019-05-10T06:46:35.656Z,12.30
2019-05-10T06:49:08.384Z,12.30
2019-05-10T06:51:35.038Z,12.40
2019-05-10T06:54:03.852Z,12.40
2019-05-10T06:56:32.406Z,12.40
2019-05-10T06:59:13.008Z,12.30
2019-05-10T07:01:31.625Z,12.30
2019-05-10T07:04:00.178Z,12.40
2019-05-10T07:06:28.913Z,12.50
2019-05-10T07:08:59.216Z,12.50
2019-05-10T07:11:27.912Z,12.60
2019-05-10T07:13:56.543Z,12.70
2019-05-10T07:16:26.149Z,12.80
2019-05-10T07:19:00.368Z,12.80
2019-05-10T07:21:25.352Z,12.80
2019-05-10T07:23:53.812Z,12.80
2019-05-10T07:26:24.739Z,12.80
2019-05-10T07:28:57.436Z,12.90
2019-05-10T07:31:23.811Z,13.00
2019-05-10T07:33:52.518Z,13.00
2019-05-10T07:36:27.062Z,13.00
2019-05-10T07:38:53.060Z,13.00
2019-05-10T07:41:26.632Z,12.90
2019-05-10T07:43:52.139Z,12.90
2019-05-10T07:46:20.664Z,12.80
2019-05-10T07:48:53.560Z,12.80
2019-05-10T07:51:22.752Z,12.80
2019-05-10T07:53:50.001Z,12.80
2019-05-10T07:56:18.470Z,12.80
2019-05-10T07:58:47.185Z,12.80
2019-05-10T08:01:30.442Z,12.80
2019-05-10T08:03:52.152Z,12.70
2019-05-10T08:06:19.244Z,12.70
2019-05-10T08:08:49.467Z,12.70
2019-05-10T08:11:19.120Z,12.80
2019-05-10T08:13:48.606Z,12.80
2019-05-10T08:16:22.769Z,12.80
2019-05-10T08:18:49.798Z,12.80
2019-05-10T08:21:23.959Z,12.80
2019-05-10T08:23:51.877Z,12.80
2019-05-10T08:26:22.489Z,12.80
2019-05-10T08:28:52.352Z,12.80
2019-05-10T08:31:22.173Z,12.80
2019-05-10T08:33:56.417Z,12.80
2019-05-10T08:36:21.980Z,12.70
2019-05-10T08:39:03.095Z,12.70
2019-05-10T08:41:22.395Z,12.60
2019-05-10T08:43:52.579Z,12.60
2019-05-10T08:46:29.169Z,12.60
2019-05-10T08:48:53.819Z,12.60
2019-05-10T08:51:22.801Z,12.60
2019-05-10T08:53:53.477Z,12.60
2019-05-10T08:56:24.115Z,12.70
2019-05-10T08:58:53.598Z,12.70
2019-05-10T09:01:29.581Z,12.80
2019-05-10T09:03:59.381Z,12.90
2019-05-10T09:06:23.204Z,12.90
2019-05-10T09:08:52.950Z,13.00
2019-05-10T09:11:23.170Z,13.10
2019-05-10T09:13:53.841Z,13.30
2019-05-10T09:16:23.693Z,13.50
2019-05-10T09:18:53.477Z,13.60
2019-05-10T09:21:22.559Z,13.80
2019-05-10T09:24:01.179Z,14.00
2019-05-10T09:26:22.750Z,14.10
2019-05-10T09:28:53.414Z,14.10
2019-05-10T09:31:25.528Z,14.10
2019-05-10T09:33:54.297Z,14.10
2019-05-10T09:36:30.745Z,14.10
2019-05-10T09:38:53.052Z,14.10
2019-05-10T09:41:22.566Z,14.10
2019-05-10T09:43:53.604Z,14.10
2019-05-10T09:46:22.874Z,14.20
2019-05-10T09:48:54.517Z,14.20
2019-05-10T09:51:27.931Z,14.30
2019-05-10T09:53:52.625Z,14.20
2019-05-10T09:56:21.169Z,14.30
2019-05-10T09:58:50.000Z,14.20
2019-05-10T10:01:21.632Z,14.20
2019-05-10T10:03:48.771Z,14.30
2019-05-10T10:06:17.602Z,14.40
2019-05-10T10:08:49.302Z,14.40
2019-05-10T10:11:18.649Z,14.40
2019-05-10T10:13:50.128Z,14.40
2019-05-10T10:16:19.012Z,14.30
2019-05-10T10:18:47.728Z,14.30
2019-05-10T10:21:18.931Z,14.30
2019-05-10T10:23:47.324Z,14.20
2019-05-10T10:26:18.838Z,14.20
2019-05-10T10:28:49.700Z,14.10
2019-05-10T10:31:28.784Z,14.00
2019-05-10T10:33:54.909Z,14.20
2019-05-10T10:36:16.957Z,14.30
2019-05-10T10:38:49.313Z,14.40
2019-05-10T10:41:19.172Z,14.50
2019-05-10T10:43:48.400Z,14.70
2019-05-10T10:46:19.704Z,14.90
2019-05-10T10:48:49.040Z,15.00
2019-05-10T10:51:18.246Z,15.00
2019-05-10T10:53:47.099Z,14.80
2019-05-10T10:56:17.651Z,14.70
2019-05-10T10:58:49.619Z,14.80
2019-05-10T11:01:21.293Z,14.90
2019-05-10T11:03:48.830Z,15.10
2019-05-10T11:06:17.189Z,15.20
2019-05-10T11:08:45.725Z,15.30
2019-05-10T11:11:14.679Z,15.20
2019-05-10T11:13:45.628Z,15.10
2019-05-10T11:16:15.557Z,15.00
2019-05-10T11:18:43.912Z,14.90
2019-05-10T11:21:12.610Z,14.90
2019-05-10T11:23:41.909Z,14.90
2019-05-10T11:26:11.020Z,14.90
2019-05-10T11:28:43.893Z,14.90
2019-05-10T11:31:11.400Z,14.90
2019-05-10T11:33:41.594Z,14.90
2019-05-10T11:36:11.476Z,15.00
2019-05-10T11:38:42.056Z,15.00
2019-05-10T11:41:13.407Z,15.00
2019-05-10T11:43:41.922Z,15.00
2019-05-10T11:46:11.795Z,14.90
2019-05-10T11:48:42.217Z,14.90
2019-05-10T11:51:17.143Z,14.90
2019-05-10T11:53:42.558Z,14.90
2019-05-10T11:56:14.025Z,14.90
2019-05-10T11:58:49.083Z,14.90
2019-05-10T12:01:17.637Z,14.90
2019-05-10T12:03:42.631Z,14.90
2019-05-10T12:06:12.165Z,14.90
2019-05-10T12:08:41.866Z,14.90
2019-05-10T12:11:25.362Z,14.90
2019-05-10T12:13:41.234Z,15.00
2019-05-10T12:16:12.429Z,15.10
2019-05-10T12:18:46.540Z,15.10
2019-05-10T12:21:11.339Z,15.10
2019-05-10T12:23:49.412Z,15.10
2019-05-10T12:28:40.902Z,15.20
2019-05-10T12:31:15.159Z,15.20
2019-05-10T12:33:44.753Z,15.20
2019-05-10T12:36:22.116Z,15.10
2019-05-10T12:38:40.745Z,15.10
2019-05-10T12:41:09.517Z,15.20
2019-05-10T12:43:38.122Z,15.20
2019-05-10T12:46:06.592Z,15.30
2019-05-10T12:48:35.951Z,15.30
2019-05-10T12:51:11.410Z,15.50
2019-05-10T12:53:36.572Z,15.80
2019-05-10T12:56:05.615Z,16.00
2019-05-10T12:58:34.243Z,16.00
2019-05-10T13:01:03.090Z,16.00
2019-05-10T13:03:33.855Z,16.00
2019-05-10T13:06:02.115Z,15.80
2019-05-10T13:08:30.585Z,15.70
2019-05-10T13:10:59.681Z,15.50
2019-05-10T13:13:31.131Z,15.40
2019-05-10T13:16:03.449Z,15.30
2019-05-10T13:21:01.093Z,15.20
2019-05-10T13:23:29.717Z,15.20
2019-05-10T13:25:58.423Z,15.20
2019-05-10T13:28:26.923Z,15.20
2019-05-10T13:30:59.950Z,15.10
2019-05-10T13:33:28.902Z,15.10
2019-05-10T13:35:57.040Z,15.10
2019-05-10T13:38:26.428Z,15.20
2019-05-10T13:40:55.479Z,15.30
2019-05-10T13:43:27.060Z,15.40
2019-05-10T13:45:54.720Z,15.60
2019-05-10T13:48:26.489Z,15.90
2019-05-10T13:50:53.792Z,15.90
2019-05-10T13:53:23.243Z,16.00
2019-05-10T13:55:52.215Z,16.10
2019-05-10T13:58:20.752Z,16.10
2019-05-10T14:00:49.351Z,16.00
2019-05-10T14:03:18.030Z,16.00
2019-05-10T14:05:46.560Z,16.00
2019-05-10T14:08:15.087Z,16.10
2019-05-10T14:10:43.880Z,16.30
2019-05-10T14:13:16.400Z,16.60
2019-05-10T14:15:42.672Z,16.80
2019-05-10T14:18:11.324Z,16.90
2019-05-10T14:20:41.607Z,16.90
2019-05-10T14:23:10.100Z,16.80
2019-05-10T14:25:39.163Z,16.80
2019-05-10T14:28:09.717Z,16.90
2019-05-10T14:30:38.199Z,16.80
2019-05-10T14:33:08.768Z,16.80
2019-05-10T14:35:37.014Z,16.70
2019-05-10T14:38:08.806Z,16.60
2019-05-10T14:40:36.483Z,16.60
2019-05-10T14:43:05.058Z,16.70
2019-05-10T14:45:33.626Z,16.90
2019-05-10T14:48:02.418Z,17.20
2019-05-10T14:50:31.297Z,17.50
2019-05-10T14:52:59.905Z,17.50
2019-05-10T14:55:35.077Z,17.60
2019-05-10T14:57:58.590Z,17.60
2019-05-10T15:00:27.329Z,17.60
2019-05-10T15:02:56.662Z,17.60
2019-05-10T15:05:26.235Z,17.70
2019-05-10T15:07:54.691Z,17.70
2019-05-10T15:10:23.442Z,17.80
2019-05-10T15:12:52.068Z,17.70
2019-05-10T15:15:20.569Z,17.70
2019-05-10T15:17:55.135Z,17.50
2019-05-10T15:20:19.674Z,17.40
2019-05-10T15:22:48.212Z,17.30
2019-05-10T15:25:17.056Z,17.10
2019-05-10T15:27:45.539Z,17.10
2019-05-10T15:30:14.676Z,17.20
2019-05-10T15:32:43.246Z,17.20
2019-05-10T15:35:11.936Z,17.30
2019-05-10T15:37:46.311Z,17.30
2019-05-10T15:40:11.289Z,17.30
2019-05-10T15:42:39.759Z,17.40
2019-05-10T15:45:12.121Z,17.50
2019-05-10T15:47:50.523Z,17.60
2019-05-10T15:50:10.218Z,17.80
2019-05-10T15:52:39.806Z,17.90
2019-05-10T15:55:11.035Z,18.10
2019-05-10T15:57:39.592Z,18.20
2019-05-10T16:00:09.400Z,18.20
2019-05-10T16:02:38.283Z,18.10
2019-05-10T16:05:23.287Z,18.00
2019-05-10T16:07:37.875Z,17.80
2019-05-10T16:10:08.388Z,17.80
2019-05-10T16:12:37.930Z,17.70
2019-05-10T16:15:13.949Z,17.70
2019-05-10T16:17:38.398Z,17.70
2019-05-10T16:20:07.465Z,17.80
2019-05-10T16:22:35.976Z,17.90
2019-05-10T16:25:06.408Z,17.90
2019-05-10T16:27:41.530Z,17.90
2019-05-10T16:30:11.874Z,18.00
2019-05-10T16:32:38.332Z,18.00
2019-05-10T16:35:12.741Z,18.00
2019-05-10T16:37:37.580Z,18.00
2019-05-10T16:40:08.611Z,18.10
2019-05-10T16:42:37.292Z,18.10
2019-05-10T16:45:06.799Z,18.10
2019-05-10T16:47:35.300Z,18.10
2019-05-10T16:50:06.181Z,18.10
2019-05-10T16:52:34.801Z,18.10
2019-05-10T16:55:05.435Z,18.00
2019-05-10T16:57:37.379Z,18.00
2019-05-10T17:00:08.579Z,18.00
2019-05-10T17:02:42.007Z,18.10
2019-05-10T17:05:09.625Z,18.20
2019-05-10T17:07:38.571Z,18.30
2019-05-10T17:10:10.481Z,18.30
2019-05-10T17:12:39.030Z,18.40
2019-05-10T17:15:08.107Z,18.40
2019-05-10T17:17:38.982Z,18.50
2019-05-10T17:20:14.168Z,18.60
2019-05-10T17:22:38.782Z,18.60
2019-05-10T17:25:08.884Z,18.60
2019-05-10T17:27:37.447Z,18.60
2019-05-10T17:30:07.620Z,18.60
2019-05-10T17:32:36.169Z,18.60
2019-05-10T17:35:07.550Z,18.60
2019-05-10T17:37:37.477Z,18.50
2019-05-10T17:40:10.338Z,18.50
2019-05-10T17:42:41.157Z,18.20
2019-05-10T17:45:09.232Z,18.00
2019-05-10T17:47:38.037Z,17.70
2019-05-10T17:50:10.201Z,17.50
2019-05-10T17:52:38.748Z,17.30
2019-05-10T17:55:10.898Z,17.10
2019-05-10T17:57:38.651Z,17.00
2019-05-10T18:00:08.928Z,17.00
2019-05-10T18:02:37.508Z,16.90
2019-05-10T18:05:08.272Z,16.80
2019-05-10T18:07:37.111Z,16.80
2019-05-10T18:10:06.736Z,16.70
2019-05-10T18:12:35.288Z,16.70
2019-05-10T18:15:08.110Z,16.60
2019-05-10T18:17:36.788Z,16.50
2019-05-10T18:20:08.878Z,16.40
2019-05-10T18:22:43.137Z,16.20
2019-05-10T18:25:19.451Z,16.00
2019-05-10T18:27:38.249Z,15.90
2019-05-10T18:30:07.363Z,15.70
2019-05-10T18:32:37.209Z,15.50
2019-05-10T18:35:14.219Z,15.40
2019-05-10T18:37:37.899Z,15.20
2019-05-10T18:40:11.371Z,15.10
2019-05-10T18:42:40.006Z,15.00
2019-05-10T18:45:08.904Z,14.90
2019-05-10T18:47:37.399Z,14.80
2019-05-10T18:50:07.136Z,14.70
2019-05-10T18:52:35.713Z,14.60
2019-05-10T18:55:05.382Z,14.50
2019-05-10T18:57:34.122Z,14.50
2019-05-10T19:00:03.266Z,14.40
2019-05-10T19:02:32.424Z,14.40
2019-05-10T19:05:00.945Z,14.30
2019-05-10T19:07:29.482Z,14.30
2019-05-10T19:09:58.309Z,14.20
2019-05-10T19:12:27.044Z,14.10
2019-05-10T19:14:56.205Z,14.10
2019-05-10T19:17:24.843Z,14.00
2019-05-10T19:19:53.366Z,14.00
2019-05-10T19:22:21.925Z,13.90
2019-05-10T19:24:50.484Z,13.80
2019-05-10T19:27:18.932Z,13.70
2019-05-10T19:29:48.010Z,13.70
2019-05-10T19:32:20.060Z,13.60
2019-05-10T19:34:48.489Z,13.60
2019-05-10T19:37:28.902Z,13.50
2019-05-10T19:39:48.323Z,13.50
2019-05-10T19:42:17.208Z,13.40
2019-05-10T19:44:45.867Z,13.40
2019-05-10T19:47:17.761Z,13.40
2019-05-10T19:49:45.897Z,13.40
2019-05-10T19:52:21.133Z,13.30
2019-05-10T19:54:46.236Z,13.30
2019-05-10T19:57:18.591Z,13.30
2019-05-10T19:59:48.693Z,13.20
2019-05-10T20:02:15.579Z,13.20
2019-05-10T20:04:44.134Z,13.20
2019-05-10T20:07:12.770Z,13.10
2019-05-10T20:09:41.514Z,13.10
2019-05-10T20:12:10.075Z,13.10
2019-05-10T20:14:38.645Z,13.00
2019-05-10T20:17:07.398Z,12.90
2019-05-10T20:19:36.033Z,12.90
2019-05-10T20:22:04.618Z,12.90
2019-05-10T20:24:33.545Z,12.90
2019-05-10T20:27:02.064Z,12.80
2019-05-10T20:29:30.594Z,12.80
2019-05-10T20:31:59.384Z,12.70
2019-05-10T20:34:28.431Z,12.70
2019-05-10T20:36:56.900Z,12.70
2019-05-10T20:39:25.514Z,12.60
2019-05-10T20:41:54.288Z,12.60
2019-05-10T20:44:22.853Z,12.50
2019-05-10T20:46:51.684Z,12.50
2019-05-10T20:49:20.338Z,12.50
2019-05-10T20:51:49.086Z,12.40
2019-05-10T20:54:17.809Z,12.40
2019-05-10T20:56:46.511Z,12.40
2019-05-10T20:59:15.242Z,12.40
2019-05-10T21:01:44.448Z,12.40
2019-05-10T21:04:12.948Z,12.40
2019-05-10T21:06:41.606Z,12.40
2019-05-10T21:09:10.359Z,12.30
2019-05-10T21:11:38.864Z,12.30
2019-05-10T21:14:07.452Z,12.20
2019-05-10T21:16:36.060Z,12.20
2019-05-10T21:19:04.594Z,12.20
2019-05-10T21:21:33.105Z,12.20
2019-05-10T21:24:01.787Z,12.10
2019-05-10T21:26:30.347Z,12.10
2019-05-10T21:28:58.923Z,12.10
2019-05-10T21:31:27.797Z,12.10
2019-05-10T21:34:08.510Z,12.00
2019-05-10T21:36:26.664Z,12.00
2019-05-10T21:38:55.452Z,12.00
2019-05-10T21:41:24.331Z,12.00
2019-05-10T21:43:52.833Z,12.00
2019-05-10T21:46:21.682Z,11.90
2019-05-10T21:48:50.261Z,11.90
2019-05-10T21:51:19.036Z,11.90
2019-05-10T21:53:47.654Z,11.90
2019-05-10T21:56:16.123Z,11.80
2019-05-10T21:58:44.593Z,11.80
2019-05-10T22:01:13.617Z,11.80
2019-05-10T22:03:42.084Z,11.70
2019-05-10T22:06:10.549Z,11.60
2019-05-10T22:08:48.856Z,11.60
2019-05-10T22:11:09.800Z,11.60
2019-05-10T22:13:38.335Z,11.50
2019-05-10T22:16:07.211Z,11.50
2019-05-10T22:18:37.435Z,11.50
2019-05-10T22:21:06.097Z,11.40
2019-05-10T22:23:34.820Z,11.40
2019-05-10T22:26:03.396Z,11.40
2019-05-10T22:28:31.901Z,11.40
2019-05-10T22:31:00.569Z,11.40
2019-05-10T22:33:29.036Z,11.40
2019-05-10T22:35:57.542Z,11.40
2019-05-10T22:38:26.277Z,11.40
2019-05-10T22:40:57.649Z,11.40
2019-05-10T22:43:26.171Z,11.40
2019-05-10T22:45:54.774Z,11.40
2019-05-10T22:48:23.255Z,11.30
2019-05-10T22:50:52.894Z,11.40
2019-05-10T22:53:21.578Z,11.30
2019-05-10T22:55:50.044Z,11.30
2019-05-10T22:58:18.534Z,11.30
2019-05-10T23:00:47.527Z,11.30
2019-05-10T23:03:16.074Z,11.30
2019-05-10T23:05:44.691Z,11.20
2019-05-10T23:08:13.342Z,11.20
2019-05-10T23:10:43.168Z,11.20
2019-05-10T23:13:11.627Z,11.20
2019-05-10T23:15:40.403Z,11.20
2019-05-10T23:18:08.975Z,11.20
2019-05-10T23:20:37.451Z,11.10
2019-05-10T23:23:05.971Z,11.10
2019-05-10T23:25:34.467Z,11.10
2019-05-10T23:28:02.991Z,11.10
2019-05-10T23:30:36.132Z,11.10
2019-05-10T23:33:04.861Z,11.00
2019-05-10T23:35:33.332Z,11.00
2019-05-10T23:38:02.174Z,11.00
2019-05-10T23:40:30.816Z,10.90
2019-05-10T23:42:59.296Z,10.90
2019-05-10T23:45:28.276Z,10.90
2019-05-10T23:47:56.738Z,10.90
2019-05-10T23:50:25.468Z,10.90
2019-05-10T23:52:54.174Z,10.90
2019-05-10T23:55:22.640Z,10.80
2019-05-10T23:57:52.706Z,10.80
